EGLC/LCY METAR and TAF weather

Enter ICAO airport designator
Station Type Date Time Source
EGLC METAR 2020/11/28 19:50 UTC NOAA

EGLC 281950Z AUTO 06007KT 4400 HZ OVC005 10/08 Q1022


Station Type Date Time Source
EGLC Decoded METAR 2020/11/28 19:50 UTC NOAA

London City Airport, United Kingdom (EGLC) 51-30N 000-30W
Nov 28, 2020 - 02:50 PM EST / 2020.11.28 1950 UTC
Wind: from the ENE (060 degrees) at 8 MPH (7 KT):0
Visibility: 2 mile(s):0
Sky conditions: overcast
Weather: haze
Temperature: 50 F (10 C)
Dew Point: 46 F (8 C)
Relative Humidity: 87%
Pressure (altimeter): 30.18 in. Hg (1022 hPa)
ob: EGLC 281950Z AUTO 06007KT 4400 HZ OVC005 10/08 Q1022
cycle: 20

Station Type Date Time Source
EGLC TAF 2018/10/15 21:30 UTC NOAA

TAF EGLC 152119Z 1521/1621 CNL

Example: see airport list